createdAt,value
2022-09-12T00:00:32.302Z,13.50
2022-09-12T00:03:22.496Z,13.60
2022-09-12T00:06:11.866Z,13.40
2022-09-12T00:09:00.702Z,13.30
2022-09-12T00:11:49.297Z,13.30
2022-09-12T00:14:37.169Z,13.20
2022-09-12T00:17:25.055Z,13.20
2022-09-12T00:20:14.647Z,13.10
2022-09-12T00:23:02.900Z,13.00
2022-09-12T00:25:51.222Z,12.90
2022-09-12T00:28:40.859Z,12.90
2022-09-12T00:31:29.428Z,12.80
2022-09-12T00:34:16.938Z,12.70
2022-09-12T00:37:06.341Z,12.90
2022-09-12T00:39:53.957Z,12.70
2022-09-12T00:42:41.185Z,12.70
2022-09-12T00:45:31.671Z,12.60
2022-09-12T00:48:22.819Z,12.70
2022-09-12T00:51:11.109Z,12.70
2022-09-12T00:54:02.188Z,12.70
2022-09-12T00:56:52.697Z,12.80
2022-09-12T00:59:41.979Z,12.80
2022-09-12T01:02:29.684Z,12.80
2022-09-12T01:05:17.005Z,12.80
2022-09-12T01:08:05.763Z,12.80
2022-09-12T01:10:55.592Z,12.80
2022-09-12T01:13:45.094Z,12.80
2022-09-12T01:16:32.909Z,12.70
2022-09-12T01:19:32.542Z,12.40
2022-09-12T01:22:25.378Z,12.60
2022-09-12T01:25:20.843Z,12.60
2022-09-12T01:28:24.480Z,12.60
2022-09-12T01:31:19.270Z,12.60
2022-09-12T01:34:13.372Z,12.60
2022-09-12T01:37:04.801Z,12.70
2022-09-12T01:39:56.901Z,12.80
2022-09-12T01:42:48.511Z,12.70
2022-09-12T01:45:41.606Z,12.60
2022-09-12T01:48:32.449Z,12.60
2022-09-12T01:51:23.098Z,12.60
2022-09-12T01:54:12.349Z,12.50
2022-09-12T01:57:01.823Z,12.40
2022-09-12T01:59:51.722Z,12.50
2022-09-12T02:02:41.176Z,12.40
2022-09-12T02:05:34.002Z,12.40
2022-09-12T02:08:24.581Z,12.40
2022-09-12T02:11:13.792Z,12.50
2022-09-12T02:14:03.552Z,12.40
2022-09-12T02:16:53.817Z,12.40
2022-09-12T02:19:44.091Z,12.40
2022-09-12T02:22:34.766Z,12.50
2022-09-12T02:25:23.767Z,12.40
2022-09-12T02:28:16.952Z,12.40
2022-09-12T02:31:13.080Z,12.30
2022-09-12T02:34:08.687Z,12.20
2022-09-12T02:37:04.275Z,12.20
2022-09-12T02:39:55.504Z,12.10
2022-09-12T02:42:43.672Z,12.10
2022-09-12T02:45:32.521Z,12.10
2022-09-12T02:48:22.776Z,12.10
2022-09-12T02:51:11.541Z,12.20
2022-09-12T02:53:59.255Z,12.20
2022-09-12T02:56:48.995Z,12.20
2022-09-12T02:59:37.170Z,12.20
2022-09-12T03:02:29.075Z,12.30
2022-09-12T03:05:26.147Z,12.30
2022-09-12T03:08:17.551Z,12.30
2022-09-12T03:11:12.185Z,12.30
2022-09-12T03:14:13.985Z,12.30
2022-09-12T03:17:07.289Z,12.30
2022-09-12T03:19:59.090Z,12.30
2022-09-12T03:22:54.665Z,12.30
2022-09-12T03:25:44.647Z,12.30
2022-09-12T03:28:34.617Z,12.30
2022-09-12T03:31:23.920Z,12.30
2022-09-12T03:34:13.274Z,12.30
2022-09-12T03:37:01.004Z,12.30
2022-09-12T03:39:49.424Z,12.40
2022-09-12T03:42:37.088Z,12.80
2022-09-12T03:45:25.053Z,12.70
2022-09-12T03:48:14.373Z,12.80
2022-09-12T03:51:03.079Z,12.90
2022-09-12T03:53:51.545Z,12.80
2022-09-12T03:56:39.320Z,12.70
2022-09-12T03:59:26.871Z,12.80
2022-09-12T04:02:14.690Z,12.80
2022-09-12T04:05:05.247Z,12.70
2022-09-12T04:07:53.758Z,12.60
2022-09-12T04:10:41.902Z,12.50
2022-09-12T04:13:33.051Z,12.50
2022-09-12T04:16:20.977Z,13.80
2022-09-12T04:19:09.368Z,12.50
2022-09-12T04:21:59.958Z,12.40
2022-09-12T04:24:48.154Z,12.40
2022-09-12T04:27:36.755Z,12.50
2022-09-12T04:30:24.925Z,12.30
2022-09-12T04:33:13.703Z,12.20
2022-09-12T04:36:04.408Z,12.20
2022-09-12T04:38:53.498Z,12.20
2022-09-12T04:41:42.273Z,12.10
2022-09-12T04:44:29.831Z,12.10
2022-09-12T04:47:18.952Z,12.00
2022-09-12T04:50:06.815Z,12.20
2022-09-12T04:52:54.936Z,12.00
2022-09-12T04:55:44.610Z,12.00
2022-09-12T04:58:33.280Z,12.00
2022-09-12T05:01:23.411Z,11.90
2022-09-12T05:04:12.208Z,11.90
2022-09-12T05:07:00.100Z,11.90
2022-09-12T05:09:49.082Z,11.90
2022-09-12T05:12:39.000Z,12.10
2022-09-12T05:15:26.772Z,11.90
2022-09-12T05:18:14.105Z,11.90
2022-09-12T05:21:02.671Z,11.80
2022-09-12T05:23:55.135Z,11.80
2022-09-12T05:26:43.007Z,11.70
2022-09-12T05:29:32.997Z,11.80
2022-09-12T05:32:21.022Z,11.80
2022-09-12T05:35:09.574Z,11.70
2022-09-12T05:37:57.926Z,11.70
2022-09-12T05:40:46.352Z,11.50
2022-09-12T05:43:33.775Z,11.60
2022-09-12T05:46:24.392Z,11.60
2022-09-12T05:49:13.762Z,11.60
2022-09-12T05:52:01.580Z,11.60
2022-09-12T05:54:49.822Z,11.60
2022-09-12T05:57:37.842Z,11.60
2022-09-12T06:00:26.410Z,11.50
2022-09-12T06:03:17.978Z,11.50
2022-09-12T06:06:06.325Z,10.30
2022-09-12T06:08:56.187Z,11.50
2022-09-12T06:11:44.628Z,11.50
2022-09-12T06:14:33.111Z,11.50
2022-09-12T06:17:21.241Z,11.50
2022-09-12T06:20:11.545Z,10.40
2022-09-12T06:22:59.006Z,11.60
2022-09-12T06:25:50.550Z,11.60
2022-09-12T06:28:39.937Z,11.70
2022-09-12T06:31:27.978Z,11.80
2022-09-12T06:34:16.647Z,11.80
2022-09-12T06:37:09.239Z,11.80
2022-09-12T06:39:57.388Z,11.90
2022-09-12T06:42:44.859Z,13.50
2022-09-12T06:45:34.293Z,12.00
2022-09-12T06:48:21.880Z,12.10
2022-09-12T06:51:11.843Z,12.10
2022-09-12T06:54:04.001Z,12.20
2022-09-12T06:56:52.228Z,12.40
2022-09-12T06:59:40.349Z,12.30
2022-09-12T07:02:28.074Z,12.30
2022-09-12T07:05:16.447Z,12.50
2022-09-12T07:08:04.956Z,12.50
2022-09-12T07:10:54.070Z,12.60
2022-09-12T07:13:42.190Z,12.70
2022-09-12T07:16:32.820Z,12.70
2022-09-12T07:19:20.708Z,12.90
2022-09-12T07:22:11.512Z,12.60
2022-09-12T07:24:59.552Z,13.10
2022-09-12T07:27:51.235Z,13.20
2022-09-12T07:30:42.138Z,13.30
2022-09-12T07:33:30.385Z,13.40
2022-09-12T07:36:19.725Z,13.50
2022-09-12T07:39:07.449Z,13.60
2022-09-12T07:41:56.268Z,13.70
2022-09-12T07:44:45.922Z,13.80
2022-09-12T07:47:34.570Z,13.90
2022-09-12T07:50:22.896Z,14.00
2022-09-12T07:53:11.988Z,14.20
2022-09-12T07:55:59.922Z,14.30
2022-09-12T07:58:48.584Z,14.50
2022-09-12T08:01:40.168Z,14.50
2022-09-12T08:09:17.901Z,14.90
2022-09-12T08:12:08.185Z,15.20
2022-09-12T08:14:56.687Z,15.40
2022-09-12T08:17:46.892Z,15.50
2022-09-12T08:20:35.241Z,15.60
2022-09-12T08:23:23.825Z,16.10
2022-09-12T08:26:12.230Z,16.10
2022-09-12T08:29:00.103Z,16.20
2022-09-12T08:31:48.255Z,16.40
2022-09-12T08:34:39.065Z,16.40
2022-09-12T08:37:29.256Z,16.60
2022-09-12T08:40:19.301Z,16.60
2022-09-12T08:43:11.892Z,16.80
2022-09-12T08:46:04.013Z,16.80
2022-09-12T08:48:53.196Z,16.90
2022-09-12T08:51:43.374Z,17.00
2022-09-12T08:54:31.503Z,17.10
2022-09-12T08:57:19.446Z,17.30
2022-09-12T09:00:08.607Z,17.40
2022-09-12T09:03:06.572Z,17.50
2022-09-12T09:05:59.437Z,17.60
2022-09-12T09:08:52.510Z,17.70
2022-09-12T09:11:48.637Z,17.90
2022-09-12T09:14:50.561Z,18.00
2022-09-12T09:17:40.656Z,18.20
2022-09-12T09:20:32.181Z,18.30
2022-09-12T09:23:24.378Z,18.30
2022-09-12T09:26:16.849Z,18.40
2022-09-12T09:29:09.203Z,18.60
2022-09-12T09:31:57.938Z,18.70
2022-09-12T09:34:48.660Z,17.60
2022-09-12T09:37:40.231Z,18.90
2022-09-12T09:40:29.590Z,19.00
2022-09-12T09:43:23.059Z,18.80
2022-09-12T09:46:11.940Z,19.00
2022-09-12T09:49:03.514Z,19.10
2022-09-12T09:51:51.306Z,19.20
2022-09-12T09:54:41.141Z,19.20
2022-09-12T09:57:45.235Z,19.50
2022-09-12T10:00:36.035Z,19.70
2022-09-12T10:03:27.580Z,20.50
2022-09-12T10:06:27.129Z,20.70
2022-09-12T10:09:22.896Z,21.30
2022-09-12T10:12:21.718Z,20.90
2022-09-12T10:15:18.274Z,21.10
2022-09-12T10:18:07.851Z,21.20
2022-09-12T10:20:56.003Z,21.10
2022-09-12T10:23:44.726Z,21.10
2022-09-12T10:26:37.474Z,21.10
2022-09-12T10:29:30.327Z,21.10
2022-09-12T10:32:30.998Z,21.20
2022-09-12T10:35:22.352Z,22.00
2022-09-12T10:38:15.640Z,22.80
2022-09-12T10:41:05.047Z,21.30
2022-09-12T10:43:52.806Z,21.50
2022-09-12T10:46:41.476Z,21.40
2022-09-12T10:49:30.272Z,21.40
2022-09-12T10:52:23.501Z,21.60
2022-09-12T10:55:14.919Z,21.50
2022-09-12T10:58:10.212Z,21.70
2022-09-12T11:01:00.824Z,21.80
2022-09-12T11:03:55.063Z,21.90
2022-09-12T11:06:49.842Z,22.70
2022-09-12T11:09:45.110Z,22.00
2022-09-12T11:12:37.479Z,22.00
2022-09-12T11:15:43.674Z,22.00
2022-09-12T11:18:43.992Z,22.10
2022-09-12T11:21:45.256Z,22.10
2022-09-12T11:24:50.646Z,22.20
2022-09-12T11:27:50.881Z,21.10
2022-09-12T11:30:45.074Z,22.40
2022-09-12T11:33:42.992Z,22.50
2022-09-12T11:36:35.215Z,22.50
2022-09-12T11:39:25.915Z,22.70
2022-09-12T11:42:19.804Z,22.70
2022-09-12T11:45:18.005Z,22.70
2022-09-12T11:48:08.694Z,22.90
2022-09-12T11:50:57.043Z,23.00
2022-09-12T11:53:46.153Z,23.00
2022-09-12T11:56:36.109Z,23.20
2022-09-12T11:59:35.985Z,23.10
2022-09-12T12:02:28.253Z,23.20
2022-09-12T12:05:21.059Z,23.00
2022-09-12T12:08:09.603Z,23.20
2022-09-12T12:11:09.263Z,23.20
2022-09-12T12:14:01.998Z,23.40
2022-09-12T12:16:52.285Z,23.40
2022-09-12T12:19:46.070Z,23.50
2022-09-12T12:22:34.420Z,23.70
2022-09-12T12:25:29.726Z,23.70
2022-09-12T12:28:40.812Z,23.80
2022-09-12T12:31:30.509Z,23.80
2022-09-12T12:34:23.785Z,24.20
2022-09-12T12:37:30.637Z,24.20
2022-09-12T12:40:27.005Z,24.30
2022-09-12T12:43:32.549Z,24.50
2022-09-12T12:46:23.422Z,24.30
2022-09-12T12:49:20.339Z,23.90
2022-09-12T12:52:17.266Z,24.30
2022-09-12T12:55:05.930Z,24.40
2022-09-12T12:57:58.369Z,24.40
2022-09-12T13:00:47.445Z,23.80
2022-09-12T13:03:36.361Z,24.80
2022-09-12T13:06:32.409Z,25.00
2022-09-12T13:09:22.993Z,25.10
2022-09-12T13:12:13.344Z,25.30
2022-09-12T13:15:03.595Z,25.10
2022-09-12T13:17:51.319Z,25.00
2022-09-12T13:20:45.849Z,24.90
2022-09-12T13:23:35.371Z,24.80
2022-09-12T13:26:24.118Z,24.80
2022-09-12T13:29:17.581Z,24.70
2022-09-12T13:32:10.707Z,24.70
2022-09-12T13:35:08.457Z,24.70
2022-09-12T13:38:03.691Z,24.80
2022-09-12T13:41:00.548Z,24.80
2022-09-12T13:43:49.578Z,25.00
2022-09-12T13:46:37.918Z,25.00
2022-09-12T13:49:31.285Z,25.10
2022-09-12T13:52:21.559Z,25.30
2022-09-12T13:55:16.461Z,25.40
2022-09-12T13:58:08.111Z,25.60
2022-09-12T14:01:03.497Z,25.90
2022-09-12T14:04:09.898Z,25.80
2022-09-12T14:06:58.122Z,25.70
2022-09-12T14:09:47.935Z,25.70
2022-09-12T14:12:37.955Z,25.60
2022-09-12T14:15:31.827Z,25.40
2022-09-12T14:18:24.974Z,24.30
2022-09-12T14:21:20.336Z,25.40
2022-09-12T14:24:10.383Z,25.40
2022-09-12T14:26:59.112Z,25.50
2022-09-12T14:29:53.713Z,25.70
2022-09-12T14:32:43.072Z,25.80
2022-09-12T14:35:33.127Z,25.80
2022-09-12T14:38:25.918Z,25.70
2022-09-12T14:41:16.172Z,25.70
2022-09-12T14:44:08.756Z,24.60
2022-09-12T14:47:05.073Z,24.70
2022-09-12T14:49:58.405Z,25.90
2022-09-12T14:53:09.363Z,25.90
2022-09-12T14:56:15.204Z,25.40
2022-09-12T14:59:27.394Z,25.50
2022-09-12T15:02:26.886Z,25.50
2022-09-12T15:05:20.806Z,25.50
2022-09-12T15:08:16.821Z,25.60
2022-09-12T15:11:10.691Z,25.70
2022-09-12T15:14:08.339Z,25.80
2022-09-12T15:16:55.783Z,25.80
2022-09-12T15:19:44.532Z,25.90
2022-09-12T15:22:36.477Z,25.70
2022-09-12T15:25:24.407Z,25.70
2022-09-12T15:28:17.226Z,25.60
2022-09-12T15:31:14.771Z,25.90
2022-09-12T15:34:09.444Z,25.70
2022-09-12T15:36:56.966Z,25.80
2022-09-12T15:39:47.146Z,25.80
2022-09-12T15:42:36.080Z,25.80
2022-09-12T15:45:27.500Z,25.90
2022-09-12T15:48:15.793Z,25.90
2022-09-12T15:51:05.067Z,25.90
2022-09-12T15:53:53.262Z,25.90
2022-09-12T15:56:44.838Z,25.80
2022-09-12T15:59:41.603Z,25.70
2022-09-12T16:02:29.797Z,25.60
2022-09-12T16:05:18.824Z,25.60
2022-09-12T16:08:08.904Z,25.40
2022-09-12T16:10:59.545Z,25.40
2022-09-12T16:13:50.726Z,25.40
2022-09-12T16:16:38.529Z,24.60
2022-09-12T16:19:26.545Z,25.40
2022-09-12T16:22:14.418Z,25.30
2022-09-12T16:25:06.157Z,25.00
2022-09-12T16:27:54.195Z,24.70
2022-09-12T16:30:45.989Z,24.30
2022-09-12T16:33:36.311Z,24.00
2022-09-12T16:36:25.785Z,23.70
2022-09-12T16:39:13.873Z,22.10
2022-09-12T16:42:02.618Z,23.30
2022-09-12T16:44:50.287Z,23.30
2022-09-12T16:47:40.119Z,23.20
2022-09-12T16:50:32.112Z,23.30
2022-09-12T16:53:20.047Z,23.20
2022-09-12T16:56:08.263Z,23.20
2022-09-12T16:58:56.198Z,23.20
2022-09-12T17:01:45.503Z,23.20
2022-09-12T17:04:36.837Z,23.20
2022-09-12T17:07:25.130Z,23.20
2022-09-12T17:10:12.843Z,23.10
2022-09-12T17:13:01.641Z,23.10
2022-09-12T17:15:48.985Z,23.10
2022-09-12T17:18:37.109Z,22.70
2022-09-12T17:21:26.865Z,22.80
2022-09-12T17:24:15.008Z,22.80
2022-09-12T17:27:02.747Z,22.80
2022-09-12T17:29:51.392Z,22.80
2022-09-12T17:32:39.063Z,22.80
2022-09-12T17:35:26.638Z,22.80
2022-09-12T17:38:19.355Z,22.50
2022-09-12T17:41:17.938Z,22.40
2022-09-12T17:44:07.407Z,22.20
2022-09-12T17:46:55.249Z,22.10
2022-09-12T17:49:42.876Z,21.60
2022-09-12T17:52:32.120Z,22.00
2022-09-12T17:55:22.145Z,21.80
2022-09-12T17:58:12.825Z,21.60
2022-09-12T18:01:21.717Z,21.50
2022-09-12T18:04:11.067Z,21.50
2022-09-12T18:07:00.401Z,21.20
2022-09-12T18:09:49.351Z,21.20
2022-09-12T18:12:39.018Z,21.00
2022-09-12T18:15:28.960Z,20.90
2022-09-12T18:18:18.730Z,20.80
2022-09-12T18:21:26.122Z,20.70
2022-09-12T18:24:14.286Z,20.60
2022-09-12T18:27:06.007Z,21.50
2022-09-12T18:30:17.122Z,19.80
2022-09-12T18:33:03.796Z,20.30
2022-09-12T18:35:51.106Z,20.20
2022-09-12T18:38:39.516Z,20.10
2022-09-12T18:41:29.108Z,20.10
2022-09-12T18:44:18.667Z,20.00
2022-09-12T18:47:08.844Z,19.90
2022-09-12T18:49:57.003Z,19.70
2022-09-12T18:52:44.460Z,19.70
2022-09-12T18:55:35.430Z,19.60
2022-09-12T18:58:25.764Z,19.50
2022-09-12T19:01:14.642Z,19.50
2022-09-12T19:04:07.806Z,19.40
2022-09-12T19:06:58.982Z,19.40
2022-09-12T19:09:46.914Z,19.30
2022-09-12T19:12:35.387Z,19.20
2022-09-12T19:15:23.540Z,19.20
2022-09-12T19:18:12.832Z,19.20
2022-09-12T19:21:02.448Z,19.00
2022-09-12T19:23:50.925Z,19.00
2022-09-12T19:26:39.267Z,19.00
2022-09-12T19:29:26.471Z,18.80
2022-09-12T19:32:15.060Z,18.80
2022-09-12T19:35:06.340Z,18.80
2022-09-12T19:37:58.413Z,18.80
2022-09-12T19:40:46.490Z,18.70
2022-09-12T19:43:34.844Z,18.60
2022-09-12T19:46:23.898Z,18.60
2022-09-12T19:49:13.345Z,18.40
2022-09-12T19:52:01.265Z,18.50
2022-09-12T19:54:50.045Z,18.40
2022-09-12T19:57:37.328Z,18.40
2022-09-12T20:00:27.112Z,18.40
2022-09-12T20:03:17.898Z,18.40
2022-09-12T20:06:10.689Z,18.30
2022-09-12T20:08:59.443Z,18.40
2022-09-12T20:11:48.710Z,18.30
2022-09-12T20:14:36.579Z,18.20
2022-09-12T20:17:23.848Z,18.20
2022-09-12T20:20:11.663Z,18.20
2022-09-12T20:23:02.291Z,18.10
2022-09-12T20:25:49.955Z,18.20
2022-09-12T20:28:40.109Z,18.10
2022-09-12T20:31:28.010Z,18.10
2022-09-12T20:34:17.555Z,18.10
2022-09-12T20:37:06.288Z,18.00
2022-09-12T20:39:55.990Z,18.00
2022-09-12T20:42:44.157Z,18.20
2022-09-12T20:45:33.559Z,17.90
2022-09-12T20:48:24.011Z,17.90
2022-09-12T20:51:11.397Z,17.80
2022-09-12T20:54:00.006Z,17.80
2022-09-12T20:56:48.611Z,17.70
2022-09-12T20:59:42.877Z,17.70
2022-09-12T21:02:32.191Z,17.70
2022-09-12T21:05:19.924Z,17.70
2022-09-12T21:08:08.432Z,17.70
2022-09-12T21:10:57.017Z,17.60
2022-09-12T21:13:45.359Z,17.70
2022-09-12T21:16:38.761Z,17.60
2022-09-12T21:19:28.530Z,17.50
2022-09-12T21:22:16.568Z,17.50
2022-09-12T21:25:04.933Z,17.40
2022-09-12T21:27:52.728Z,17.70
2022-09-12T21:30:40.889Z,17.30
2022-09-12T21:33:29.273Z,17.30
2022-09-12T21:36:18.983Z,17.40
2022-09-12T21:39:07.145Z,17.40
2022-09-12T21:41:54.682Z,17.50
2022-09-12T21:44:42.503Z,17.60
2022-09-12T21:47:31.017Z,17.70
2022-09-12T21:50:24.675Z,17.70
2022-09-12T21:53:14.596Z,17.70
2022-09-12T21:56:03.549Z,16.20
2022-09-12T21:58:52.474Z,17.70
2022-09-12T22:01:40.159Z,17.70
2022-09-12T22:04:27.802Z,17.80
2022-09-12T22:07:15.907Z,17.80
2022-09-12T22:10:04.736Z,17.80
2022-09-12T22:12:53.074Z,17.70
2022-09-12T22:15:44.591Z,17.80
2022-09-12T22:18:33.484Z,17.80
2022-09-12T22:21:22.147Z,17.90
2022-09-12T22:24:28.019Z,17.80
2022-09-12T22:27:17.443Z,17.80
2022-09-12T22:30:09.565Z,17.70
2022-09-12T22:32:57.438Z,17.80
2022-09-12T22:35:48.255Z,17.70
2022-09-12T22:38:36.228Z,17.70
2022-09-12T22:41:24.769Z,17.70
2022-09-12T22:44:14.376Z,17.70
2022-09-12T22:47:03.796Z,17.80
2022-09-12T22:49:52.282Z,17.70
2022-09-12T22:52:39.754Z,17.70
2022-09-12T22:55:28.020Z,17.60
2022-09-12T22:58:18.270Z,17.70
2022-09-12T23:01:08.103Z,17.80
2022-09-12T23:03:55.795Z,17.80
2022-09-12T23:06:44.965Z,17.80
2022-09-12T23:09:35.562Z,17.70
2022-09-12T23:12:23.966Z,17.80
2022-09-12T23:15:12.364Z,17.80
2022-09-12T23:18:04.875Z,17.70
2022-09-12T23:21:00.655Z,17.70
2022-09-12T23:23:48.860Z,17.70
2022-09-12T23:26:36.902Z,17.60
2022-09-12T23:29:24.942Z,17.70
2022-09-12T23:32:12.740Z,17.60
2022-09-12T23:35:02.870Z,17.50
2022-09-12T23:37:50.955Z,17.60
2022-09-12T23:40:38.265Z,17.60
2022-09-12T23:43:28.320Z,17.50
2022-09-12T23:46:17.096Z,17.50
2022-09-12T23:49:05.431Z,17.40
2022-09-12T23:51:54.286Z,17.30
2022-09-12T23:54:42.487Z,17.10
2022-09-12T23:57:30.987Z,17.20
